Terminal Aerodrome Forecast
Issued by NWS

Home | Current Version | Previous Version | Text Only | Print | Product List | Glossary On
Versions: 1 2 3 4 5 6 7 8 9 10 11 12 13 14 15 16
000
FTUS41 KBGM 302300
TAFRME
TAF
KRME 302332Z 0100/0124 11005KT P6SM SCT040 BKN080
     FM010600 VRB03KT 5SM BR BKN040
     FM010800 11003KT 4SM BR OVC015
     FM011400 12006KT P6SM OVC030
     FM011800 12006KT P6SM BKN050=

USA.gov is the U.S. government's official web portal to all federal, state and local government web resources and services.